Buffalo, NY

12:10 PM EST on January 26, 2015 (GMT -0500)
Delaware West Ferry | Change Station
CLOSE
Current Station
Personal Weather Station
Location: Buffalo, NY
Elevation: 669 ft
Nearby Weather Stations

Elev 669 ft 42.92 °N, 78.87 °W | Updated 44 seconds ago

Snow
Snow
16.0 °F
Feels Like 3 °F
N
11.0
Wind Variable Wind from ENE
Gusts 26.0 mph

Today
High -- | Low -- °F
--% Chance of Precip.
Yesterday
High -- | Low -- °F
Precip. -- in
7:36 AM 5:20 PM
Waxing Crescent, 45% visible
Pressure 29.91 in
Visibility 2.0 miles
Clouds Mostly Cloudy 2700 ft
Mostly Cloudy 3700 ft
Overcast 4300 ft
Windchill 3 °F
Dew Point 11 °F
Humidity 80%
Rainfall 0.00 in
Snow Depth Not available.
UV 1.0 out of 12
Pollen .10 out of 12
Air Quality Not available.
Flu Activity Not available.
SPECI KBUF 261659Z COR 06012G20KT 2SM -SN BKN027 BKN037 OVC043 M09/M13 A2991 RMK AO2 DRSN P0000 T10941128

More Conditions Fewer Conditions

Pressure 29.91 in
Visibility 2.0 miles
Clouds Mostly Cloudy 2700 ft
Mostly Cloudy 3700 ft
Overcast 4300 ft
Windchill 3 °F
Dew Point 11 °F
Humidity 80%
Rainfall 0.00 in
Snow Depth Not available.
UV 1.0 out of 12
Pollen .10 out of 12
Air Quality Not available.
Flu Activity Not available.
SPECI KBUF 261659Z COR 06012G20KT 2SM -SN BKN027 BKN037 OVC043 M09/M13 A2991 RMK AO2 DRSN P0000 T10941128

More Conditions Fewer Conditions

10-Day Weather Forecast

Almanac

Astronomy

Jan. 26, 2015 Rise Set
Actual Time
Civil Twilight
Nautical Twilight
Astronomical Twilight
Moon
Length of Visible Light
Length of Day
Tomorrow will be .
, % of the Moon is Illuminated

Today's Extremes

State Highs State Lows

Community

WunderPhotos

Upload Photos

1,790,298 photos uploaded!

WunderBlogs® & News

Nearby

Air Quality

  Air Quality AQ Index Pollutant
Not available.

Snow Depth

Station Depth Elevation

Earthquake Activity

City Distance Mag. Time & Date
Minimum magnitude displayed is 2.5.

Coastal Water Temperatures

Place Temperature

Nearby Weather Stations